createdAt,value
2022-09-10T00:00:10.028Z,0
2022-09-10T00:01:10.526Z,0
2022-09-10T00:02:10.593Z,0
2022-09-10T00:03:11.052Z,0
2022-09-10T00:04:10.493Z,0
2022-09-10T00:05:10.254Z,0
2022-09-10T00:06:10.207Z,0
2022-09-10T00:07:09.942Z,0
2022-09-10T00:08:09.937Z,0
2022-09-10T00:09:10.187Z,0
2022-09-10T00:10:10.460Z,0
2022-09-10T00:11:10.418Z,0
2022-09-10T00:12:10.144Z,0
2022-09-10T00:13:09.879Z,0
2022-09-10T00:14:10.652Z,0
2022-09-10T00:15:10.377Z,0
2022-09-10T00:16:10.384Z,0
2022-09-10T00:17:10.367Z,0
2022-09-10T00:18:10.357Z,0
2022-09-10T00:19:10.706Z,0
2022-09-10T00:20:10.072Z,0
2022-09-10T00:21:09.825Z,0
2022-09-10T00:22:10.308Z,0
2022-09-10T00:23:10.051Z,0
2022-09-10T00:24:09.525Z,0
2022-09-10T00:25:15.210Z,0
2022-09-10T00:26:10.016Z,0
2022-09-10T00:27:10.521Z,0
2022-09-10T00:28:10.502Z,0
2022-09-10T00:29:10.488Z,0
2022-09-10T00:30:09.719Z,0
2022-09-10T00:31:10.171Z,0
2022-09-10T00:32:10.207Z,0
2022-09-10T00:33:09.680Z,0
2022-09-10T00:34:10.180Z,0
2022-09-10T00:35:10.295Z,0
2022-09-10T00:36:09.900Z,0
2022-09-10T00:37:09.669Z,0
2022-09-10T00:38:09.367Z,0
2022-09-10T00:39:09.371Z,0
2022-09-10T00:40:10.282Z,0
2022-09-10T00:41:09.592Z,0
2022-09-10T00:42:09.582Z,0
2022-09-10T00:43:09.828Z,0
2022-09-10T00:44:10.117Z,0
2022-09-10T00:45:09.560Z,0
2022-09-10T00:46:10.016Z,0
2022-09-10T00:47:09.534Z,0
2022-09-10T00:48:10.039Z,0
2022-09-10T00:49:09.777Z,0
2022-09-10T00:50:09.507Z,0
2022-09-10T00:51:10.359Z,0
2022-09-10T00:52:09.230Z,0
2022-09-10T00:53:10.006Z,0
2022-09-10T00:54:09.994Z,0
2022-09-10T00:55:09.705Z,0
2022-09-10T00:56:09.695Z,0
2022-09-10T00:57:09.680Z,0
2022-09-10T00:58:09.412Z,0
2022-09-10T00:59:09.402Z,0
2022-09-10T01:00:09.399Z,0
2022-09-10T01:01:10.224Z,0
2022-09-10T01:02:09.961Z,0
2022-09-10T01:03:09.363Z,0
2022-09-10T01:04:09.885Z,0
2022-09-10T01:05:09.880Z,0
2022-09-10T01:06:10.110Z,0
2022-09-10T01:07:10.192Z,0
2022-09-10T01:08:09.573Z,0
2022-09-10T01:09:09.603Z,0
2022-09-10T01:10:09.569Z,0
2022-09-10T01:11:09.540Z,0
2022-09-10T01:12:11.439Z,0
2022-09-10T01:13:09.518Z,0
2022-09-10T01:14:10.026Z,0
2022-09-10T01:15:09.505Z,0
2022-09-10T01:16:10.134Z,0
2022-09-10T01:17:09.478Z,0
2022-09-10T01:18:09.465Z,0
2022-09-10T01:19:09.714Z,0
2022-09-10T01:20:09.703Z,0
2022-09-10T01:21:09.199Z,0
2022-09-10T01:22:09.164Z,0
2022-09-10T01:23:10.521Z,0
2022-09-10T01:24:09.408Z,0
2022-09-10T01:25:09.428Z,0
2022-09-10T01:26:09.899Z,0
2022-09-10T01:27:09.384Z,0
2022-09-10T01:28:09.683Z,0
2022-09-10T01:29:09.606Z,0
2022-09-10T01:30:09.354Z,0
2022-09-10T01:31:09.752Z,0
2022-09-10T01:32:09.069Z,0
2022-09-10T01:33:09.312Z,0
2022-09-10T01:34:09.346Z,0
2022-09-10T01:35:41.370Z,0
2022-09-10T01:36:09.024Z,0
2022-09-10T01:37:09.544Z,0
2022-09-10T01:38:09.280Z,0
2022-09-10T01:39:09.620Z,0
2022-09-10T01:40:09.686Z,0
2022-09-10T01:41:09.509Z,0
2022-09-10T01:42:08.963Z,0
2022-09-10T01:43:09.483Z,0
2022-09-10T01:44:09.197Z,0
2022-09-10T01:45:09.204Z,0
2022-09-10T01:46:09.978Z,0
2022-09-10T01:47:09.427Z,0
2022-09-10T01:48:09.187Z,0
2022-09-10T01:49:09.152Z,0
2022-09-10T01:50:09.388Z,0
2022-09-10T01:51:09.389Z,0
2022-09-10T01:52:09.409Z,0
2022-09-10T01:53:09.105Z,0
2022-09-10T01:54:09.099Z,0
2022-09-10T01:55:09.712Z,0
2022-09-10T01:56:09.705Z,0
2022-09-10T01:57:09.087Z,0
2022-09-10T01:58:08.802Z,0
2022-09-10T01:59:09.559Z,0
2022-09-10T02:00:09.292Z,0
2022-09-10T02:01:09.829Z,0
2022-09-10T02:02:09.261Z,0
2022-09-10T02:03:08.998Z,0
2022-09-10T02:04:08.993Z,0
2022-09-10T02:05:09.234Z,0
2022-09-10T02:06:09.490Z,0
2022-09-10T02:07:09.249Z,0
2022-09-10T02:08:09.498Z,0
2022-09-10T02:09:09.453Z,0
2022-09-10T02:10:09.198Z,0
2022-09-10T02:11:09.274Z,0
2022-09-10T02:12:09.056Z,0
2022-09-10T02:13:09.442Z,0
2022-09-10T02:14:09.410Z,0
2022-09-10T02:15:08.693Z,0
2022-09-10T02:16:09.188Z,0
2022-09-10T02:17:08.341Z,0
2022-09-10T02:18:08.856Z,0
2022-09-10T02:19:08.841Z,0
2022-09-10T02:20:08.844Z,0
2022-09-10T02:21:08.816Z,0
2022-09-10T02:22:08.555Z,0
2022-09-10T02:23:09.063Z,0
2022-09-10T02:24:09.049Z,0
2022-09-10T02:25:09.037Z,0
2022-09-10T02:26:08.772Z,0
2022-09-10T02:27:09.374Z,0
2022-09-10T02:28:08.500Z,0
2022-09-10T02:29:08.776Z,0
2022-09-10T02:30:08.989Z,0
2022-09-10T02:31:08.757Z,0
2022-09-10T02:32:08.960Z,0
2022-09-10T02:33:08.696Z,0
2022-09-10T02:34:08.683Z,0
2022-09-10T02:35:08.419Z,0
2022-09-10T02:36:08.420Z,0
2022-09-10T02:37:08.396Z,0
2022-09-10T02:38:08.136Z,0
2022-09-10T02:39:08.911Z,0
2022-09-10T02:40:08.785Z,0
2022-09-10T02:41:08.617Z,0
2022-09-10T02:42:08.351Z,0
2022-09-10T02:43:08.953Z,0
2022-09-10T02:44:08.848Z,0
2022-09-10T02:45:09.111Z,0
2022-09-10T02:46:08.696Z,0
2022-09-10T02:47:08.550Z,0
2022-09-10T02:48:08.805Z,0
2022-09-10T02:49:08.533Z,0
2022-09-10T02:50:08.531Z,0
2022-09-10T02:51:08.777Z,0
2022-09-10T02:52:08.508Z,0
2022-09-10T02:53:08.500Z,0
2022-09-10T02:54:09.028Z,0
2022-09-10T02:55:08.480Z,0
2022-09-10T02:56:08.214Z,0
2022-09-10T02:57:08.460Z,0
2022-09-10T02:58:08.192Z,0
2022-09-10T02:59:08.816Z,0
2022-09-10T03:00:08.182Z,0
2022-09-10T03:01:08.524Z,0
2022-09-10T03:02:08.982Z,0
2022-09-10T03:03:12.408Z,0
2022-09-10T03:04:08.638Z,0
2022-09-10T03:05:08.310Z,0
2022-09-10T03:06:08.371Z,0
2022-09-10T03:07:08.616Z,0
2022-09-10T03:08:07.833Z,0
2022-09-10T03:09:08.847Z,0
2022-09-10T03:10:08.846Z,0
2022-09-10T03:11:08.313Z,0
2022-09-10T03:12:08.305Z,0
2022-09-10T03:13:08.046Z,0
2022-09-10T03:14:08.543Z,0
2022-09-10T03:15:08.888Z,0
2022-09-10T03:16:08.790Z,0
2022-09-10T03:17:08.842Z,0
2022-09-10T03:18:08.505Z,0
2022-09-10T03:19:08.749Z,0
2022-09-10T03:20:08.270Z,0
2022-09-10T03:21:08.221Z,0
2022-09-10T03:22:08.221Z,0
2022-09-10T03:23:07.950Z,0
2022-09-10T03:24:16.732Z,0
2022-09-10T03:25:08.692Z,0
2022-09-10T03:26:08.428Z,0
2022-09-10T03:27:08.156Z,0
2022-09-10T03:28:07.657Z,0
2022-09-10T03:29:07.878Z,0
2022-09-10T03:30:08.391Z,0
2022-09-10T03:31:08.612Z,0
2022-09-10T03:32:08.101Z,0
2022-09-10T03:49:34.329Z,0
2022-09-10T03:50:33.944Z,0
2022-09-10T03:51:33.923Z,0
2022-09-10T03:52:33.679Z,0
2022-09-10T03:53:33.128Z,0
2022-09-10T03:54:33.628Z,0
2022-09-10T03:55:33.617Z,0
2022-09-10T03:56:33.347Z,0
2022-09-10T03:57:33.076Z,0
2022-09-10T03:58:33.670Z,0
2022-09-10T03:59:33.824Z,0
2022-09-10T04:00:34.078Z,0
2022-09-10T04:01:33.764Z,0
2022-09-10T04:02:34.140Z,0
2022-09-10T04:03:33.276Z,0
2022-09-10T04:04:33.521Z,0
2022-09-10T04:05:34.157Z,0
2022-09-10T04:06:33.750Z,0
2022-09-10T04:07:33.742Z,0
2022-09-10T04:08:33.729Z,0
2022-09-10T04:09:33.718Z,0
2022-09-10T04:10:33.213Z,0
2022-09-10T04:11:33.447Z,0
2022-09-10T04:12:33.178Z,0
2022-09-10T04:13:33.947Z,0
2022-09-10T04:14:33.417Z,0
2022-09-10T04:15:33.404Z,0
2022-09-10T04:16:33.636Z,0
2022-09-10T04:17:33.967Z,0
2022-09-10T04:18:34.026Z,0
2022-09-10T04:19:33.373Z,0
2022-09-10T04:20:33.099Z,0
2022-09-10T04:21:33.982Z,0
2022-09-10T04:22:33.331Z,0
2022-09-10T04:23:33.328Z,0
2022-09-10T04:24:33.060Z,0
2022-09-10T04:25:33.302Z,0
2022-09-10T04:26:33.563Z,0
2022-09-10T04:27:33.035Z,0
2022-09-10T04:28:33.471Z,0
2022-09-10T04:29:33.006Z,0
2022-09-10T04:30:33.255Z,0
2022-09-10T04:31:33.529Z,0
2022-09-10T04:32:33.492Z,0
2022-09-10T04:33:33.233Z,0
2022-09-10T04:34:33.488Z,0
2022-09-10T04:35:33.205Z,0
2022-09-10T04:36:33.449Z,0
2022-09-10T04:37:33.818Z,0
2022-09-10T04:38:33.480Z,0
2022-09-10T04:39:33.210Z,0
2022-09-10T04:40:32.890Z,5
2022-09-10T04:41:33.145Z,5
2022-09-10T04:42:33.393Z,5
2022-09-10T04:43:33.382Z,5
2022-09-10T04:44:33.114Z,5
2022-09-10T04:45:33.076Z,5
2022-09-10T04:46:32.583Z,5
2022-09-10T04:47:33.348Z,5
2022-09-10T04:48:33.225Z,5
2022-09-10T04:49:33.321Z,10
2022-09-10T04:50:33.058Z,10
2022-09-10T04:51:32.789Z,10
2022-09-10T04:52:33.299Z,10
2022-09-10T04:53:33.675Z,10
2022-09-10T04:54:33.548Z,15
2022-09-10T04:55:32.747Z,15
2022-09-10T04:56:33.001Z,20
2022-09-10T04:57:32.727Z,15
2022-09-10T04:58:39.476Z,15
2022-09-10T04:59:32.446Z,15
2022-09-10T05:00:33.051Z,20
2022-09-10T05:01:33.209Z,20
2022-09-10T05:02:33.169Z,20
2022-09-10T05:03:32.675Z,20
2022-09-10T05:04:32.920Z,20
2022-09-10T05:05:33.184Z,20
2022-09-10T05:06:33.161Z,20
2022-09-10T05:07:33.145Z,20
2022-09-10T05:08:32.625Z,20
2022-09-10T05:09:33.505Z,20
2022-09-10T05:10:32.866Z,20
2022-09-10T05:11:32.850Z,20
2022-09-10T05:12:33.094Z,20
2022-09-10T05:13:32.315Z,20
2022-09-10T05:14:33.073Z,25
2022-09-10T05:15:33.066Z,25
2022-09-10T05:16:32.903Z,30
2022-09-10T05:17:32.806Z,30
2022-09-10T05:18:32.524Z,35
2022-09-10T05:19:32.773Z,35
2022-09-10T05:20:33.029Z,35
2022-09-10T05:21:32.755Z,35
2022-09-10T05:22:44.988Z,35
2022-09-10T05:23:32.223Z,35
2022-09-10T05:24:32.979Z,40
2022-09-10T05:25:33.410Z,40
2022-09-10T05:26:32.977Z,45
2022-09-10T05:27:32.953Z,50
2022-09-10T05:28:33.019Z,50
2022-09-10T05:29:32.684Z,50
2022-09-10T05:30:32.152Z,50
2022-09-10T05:31:32.950Z,55
2022-09-10T05:32:32.902Z,55
2022-09-10T05:33:32.897Z,55
2022-09-10T05:34:32.624Z,55
2022-09-10T05:35:32.879Z,60
2022-09-10T05:36:32.873Z,65
2022-09-10T05:37:32.345Z,70
2022-09-10T05:38:32.467Z,75
2022-09-10T05:39:32.610Z,75
2022-09-10T05:40:32.314Z,75
2022-09-10T05:41:33.205Z,80
2022-09-10T05:42:32.074Z,80
2022-09-10T05:43:32.795Z,80
2022-09-10T05:44:32.272Z,80
2022-09-10T05:45:32.823Z,80
2022-09-10T05:46:32.519Z,85
2022-09-10T05:47:33.020Z,85
2022-09-10T05:48:32.550Z,90
2022-09-10T05:49:32.994Z,90
2022-09-10T05:50:32.218Z,95
2022-09-10T05:51:32.505Z,95
2022-09-10T05:52:31.946Z,95
2022-09-10T05:53:32.700Z,95
2022-09-10T05:54:32.579Z,90
2022-09-10T05:55:32.600Z,90
2022-09-10T05:56:32.870Z,85
2022-09-10T05:57:33.202Z,85
2022-09-10T05:58:32.870Z,85
2022-09-10T05:59:32.687Z,85
2022-09-10T06:00:32.483Z,85
2022-09-10T06:01:32.477Z,85
2022-09-10T06:02:34.527Z,85
2022-09-10T06:03:33.508Z,85
2022-09-10T06:04:32.342Z,80
2022-09-10T06:05:33.044Z,80
2022-09-10T06:06:32.993Z,80
2022-09-10T06:07:32.996Z,90
2022-09-10T06:08:32.535Z,100
2022-09-10T06:09:32.672Z,110
2022-09-10T06:10:32.761Z,115
2022-09-10T06:11:32.961Z,120
2022-09-10T06:12:32.432Z,120
2022-09-10T06:13:33.062Z,120
2022-09-10T06:14:32.058Z,115
2022-09-10T06:15:32.407Z,115
2022-09-10T06:16:32.364Z,120
2022-09-10T06:17:32.486Z,125
2022-09-10T06:18:32.740Z,130
2022-09-10T06:19:32.462Z,135
2022-09-10T06:20:32.256Z,140
2022-09-10T06:21:37.235Z,140
2022-09-10T06:22:31.926Z,145
2022-09-10T06:23:32.176Z,150
2022-09-10T06:24:31.915Z,150
2022-09-10T06:25:32.159Z,155
2022-09-10T06:26:32.148Z,160
2022-09-10T06:27:31.978Z,170
2022-09-10T06:28:32.399Z,170
2022-09-10T06:29:32.757Z,180
2022-09-10T06:30:32.146Z,195
2022-09-10T06:31:31.844Z,210
2022-09-10T06:32:32.357Z,225
2022-09-10T06:33:32.095Z,235
2022-09-10T06:34:32.075Z,250
2022-09-10T06:35:32.333Z,235
2022-09-10T06:36:32.066Z,230
2022-09-10T06:37:32.063Z,225
2022-09-10T06:38:32.387Z,215
2022-09-10T06:39:32.375Z,215
2022-09-10T06:40:32.104Z,230
2022-09-10T06:41:32.289Z,240
2022-09-10T06:42:32.012Z,230
2022-09-10T06:43:31.749Z,230
2022-09-10T06:44:32.274Z,225
2022-09-10T06:45:32.798Z,220
2022-09-10T06:48:49.568Z,195
2022-09-10T06:49:00.179Z,190
2022-09-10T06:49:59.230Z,190
2022-09-10T06:50:59.473Z,190
2022-09-10T06:51:59.467Z,190
2022-09-10T06:52:59.205Z,185
2022-09-10T06:53:59.461Z,180
2022-09-10T06:54:59.188Z,175
2022-09-10T06:55:59.186Z,180
2022-09-10T06:56:59.439Z,190
2022-09-10T06:57:59.175Z,195
2022-09-10T06:59:04.341Z,195
2022-09-10T06:59:59.411Z,195
2022-09-10T07:01:00.160Z,200
2022-09-10T07:01:59.659Z,195
2022-09-10T07:02:59.387Z,195
2022-09-10T07:03:59.379Z,190
2022-09-10T07:04:59.130Z,190
2022-09-10T07:05:59.362Z,185
2022-09-10T07:06:58.837Z,190
2022-09-10T07:07:59.349Z,195
2022-09-10T07:08:59.146Z,200
2022-09-10T07:09:58.821Z,200
2022-09-10T07:10:59.578Z,190
2022-09-10T07:11:59.112Z,200
2022-09-10T07:12:58.540Z,195
2022-09-10T07:13:59.046Z,210
2022-09-10T07:14:59.049Z,215
2022-09-10T07:15:59.531Z,230
2022-09-10T07:16:59.664Z,215
2022-09-10T07:17:58.757Z,230
2022-09-10T07:18:58.754Z,250
2022-09-10T07:19:59.005Z,265
2022-09-10T07:20:59.513Z,280
2022-09-10T07:21:58.988Z,290
2022-09-10T07:22:59.846Z,275
2022-09-10T07:23:59.197Z,285
2022-09-10T07:24:58.956Z,285
2022-09-10T07:25:59.215Z,285
2022-09-10T07:26:59.209Z,295
2022-09-10T07:27:59.355Z,270
2022-09-10T07:28:58.673Z,290
2022-09-10T07:29:58.667Z,280
2022-09-10T07:30:59.228Z,280
2022-09-10T07:31:58.916Z,250
2022-09-10T07:32:59.540Z,265
2022-09-10T07:33:59.168Z,230
2022-09-10T07:34:58.891Z,230
2022-09-10T07:35:58.888Z,215
2022-09-10T07:36:58.616Z,170
2022-09-10T07:37:59.130Z,145
2022-09-10T07:38:58.608Z,170
2022-09-10T07:39:59.382Z,150
2022-09-10T07:40:59.113Z,155
2022-09-10T07:41:58.843Z,180
2022-09-10T07:42:58.571Z,185
2022-09-10T07:43:58.831Z,180
2022-09-10T07:44:59.339Z,145
2022-09-10T07:46:04.206Z,140
2022-09-10T07:46:58.550Z,145
2022-09-10T07:47:59.067Z,140
2022-09-10T07:48:59.444Z,140
2022-09-10T07:49:58.535Z,125
2022-09-10T07:50:58.526Z,115
2022-09-10T07:52:04.393Z,125
2022-09-10T07:52:58.779Z,125
2022-09-10T07:54:00.042Z,110
2022-09-10T07:54:59.100Z,120
2022-09-10T07:55:59.265Z,125
2022-09-10T07:56:58.995Z,120
2022-09-10T07:58:02.878Z,140
2022-09-10T07:58:59.240Z,160
2022-09-10T07:59:58.723Z,180
2022-09-10T08:00:58.979Z,195
2022-09-10T08:01:58.931Z,195
2022-09-10T08:02:58.700Z,185
2022-09-10T08:03:58.682Z,175
2022-09-10T08:04:59.474Z,205
2022-09-10T08:05:58.665Z,205
2022-09-10T08:06:58.933Z,190
2022-09-10T08:07:58.658Z,205
2022-09-10T08:08:58.404Z,165
2022-09-10T08:09:58.638Z,170
2022-09-10T08:10:58.641Z,145
2022-09-10T08:11:58.370Z,155
2022-09-10T08:12:58.622Z,170
2022-09-10T08:13:58.622Z,155
2022-09-10T08:14:58.346Z,140
2022-09-10T08:15:59.132Z,135
2022-09-10T08:16:58.330Z,170
2022-09-10T08:17:58.581Z,175
2022-09-10T08:18:58.830Z,155
2022-09-10T08:19:58.566Z,130
2022-09-10T08:20:59.210Z,160
2022-09-10T08:21:58.557Z,205
2022-09-10T08:22:58.808Z,245
2022-09-10T08:23:58.574Z,230
2022-09-10T08:24:58.655Z,275
2022-09-10T08:25:58.786Z,285
2022-09-10T08:26:58.300Z,285
2022-09-10T08:27:58.508Z,265
2022-09-10T08:28:58.503Z,195
2022-09-10T08:29:58.836Z,200
2022-09-10T08:30:58.955Z,220
2022-09-10T08:31:58.490Z,210
2022-09-10T08:32:58.217Z,200
2022-09-10T08:33:58.718Z,175
2022-09-10T08:34:58.459Z,150
2022-09-10T08:35:58.191Z,130
2022-09-10T08:36:59.149Z,130
2022-09-10T08:37:58.950Z,200
2022-09-10T08:39:09.734Z,205
2022-09-10T08:39:58.992Z,230
2022-09-10T08:40:58.938Z,240
2022-09-10T08:41:58.164Z,280
2022-09-10T08:42:58.664Z,245
2022-09-10T08:43:58.659Z,260
2022-09-10T08:44:58.646Z,255
2022-09-10T08:45:58.188Z,305
2022-09-10T08:46:58.119Z,270
2022-09-10T08:47:57.855Z,230
2022-09-10T08:48:58.111Z,185
2022-09-10T08:49:58.868Z,170
2022-09-10T08:50:58.355Z,150
2022-09-10T08:51:58.600Z,150
2022-09-10T08:52:58.973Z,150
2022-09-10T08:53:58.593Z,160
2022-09-10T08:54:58.083Z,175
2022-09-10T08:55:58.313Z,190
2022-09-10T08:56:58.060Z,225
2022-09-10T08:57:58.815Z,245
2022-09-10T08:58:58.551Z,265
2022-09-10T08:59:58.564Z,275
2022-09-10T09:00:58.545Z,300
2022-09-10T09:01:59.630Z,255
2022-09-10T09:02:59.632Z,190
2022-09-10T09:03:58.263Z,185
2022-09-10T09:04:58.522Z,210
2022-09-10T09:05:58.501Z,245
2022-09-10T09:06:57.980Z,265
2022-09-10T09:07:58.230Z,265
2022-09-10T09:08:58.863Z,285
2022-09-10T09:09:58.482Z,310
2022-09-10T09:10:58.486Z,315
2022-09-10T09:11:58.205Z,300
2022-09-10T09:12:58.456Z,235
2022-09-10T09:13:58.195Z,225
2022-09-10T09:14:58.187Z,185
2022-09-10T09:15:59.073Z,185
2022-09-10T09:16:57.925Z,210
2022-09-10T09:17:58.174Z,225
2022-09-10T09:18:58.158Z,275
2022-09-10T09:19:57.908Z,270
2022-09-10T09:20:57.888Z,275
2022-09-10T09:21:57.897Z,310
2022-09-10T09:22:58.132Z,325
2022-09-10T09:24:21.906Z,280
2022-09-10T09:24:58.419Z,260
2022-09-10T09:25:58.386Z,225
2022-09-10T09:26:58.633Z,260
2022-09-10T09:27:57.857Z,280
2022-09-10T09:28:58.104Z,255
2022-09-10T09:29:58.101Z,230
2022-09-10T09:30:58.434Z,285
2022-09-10T09:31:58.355Z,315
2022-09-10T09:32:58.079Z,345
2022-09-10T09:33:58.330Z,355
2022-09-10T09:34:58.088Z,355
2022-09-10T09:35:58.064Z,350
2022-09-10T09:36:58.314Z,345
2022-09-10T09:37:57.797Z,340
2022-09-10T09:38:58.302Z,345
2022-09-10T09:39:58.694Z,335
2022-09-10T09:40:58.317Z,325
2022-09-10T09:41:57.772Z,310
2022-09-10T09:42:57.508Z,320
2022-09-10T09:43:57.772Z,300
2022-09-10T09:45:03.547Z,300
2022-09-10T09:45:58.303Z,290
2022-09-10T09:46:58.513Z,285
2022-09-10T09:47:58.098Z,270
2022-09-10T09:48:58.497Z,290
2022-09-10T09:49:58.504Z,280
2022-09-10T09:50:58.250Z,245
2022-09-10T09:51:58.236Z,230
2022-09-10T09:52:58.237Z,215
2022-09-10T09:55:19.548Z,235
2022-09-10T09:55:29.360Z,240
2022-09-10T09:56:29.603Z,305
2022-09-10T09:57:28.783Z,305
2022-09-10T09:58:29.033Z,305
2022-09-10T09:59:28.782Z,295
2022-09-10T10:00:29.544Z,250
2022-09-10T10:01:29.703Z,245
2022-09-10T10:02:29.233Z,275
2022-09-10T10:03:29.267Z,300
2022-09-10T10:04:30.019Z,270
2022-09-10T10:05:28.741Z,255
2022-09-10T10:06:28.730Z,260
2022-09-10T10:07:29.511Z,265
2022-09-10T10:08:28.987Z,250
2022-09-10T10:09:29.232Z,265
2022-09-10T10:10:28.765Z,245
2022-09-10T10:11:29.273Z,235
2022-09-10T10:12:28.982Z,205
2022-09-10T10:13:28.952Z,160
2022-09-10T10:14:29.215Z,140
2022-09-10T10:15:29.204Z,155
2022-09-10T10:16:28.939Z,180
2022-09-10T10:17:28.673Z,195
2022-09-10T10:18:29.185Z,230
2022-09-10T10:19:29.179Z,225
2022-09-10T10:20:28.915Z,235
2022-09-10T10:21:29.192Z,215
2022-09-10T10:22:28.660Z,210
2022-09-10T10:23:33.965Z,240
2022-09-10T10:24:29.153Z,255
2022-09-10T10:25:29.147Z,275
2022-09-10T10:26:28.939Z,295
2022-09-10T10:27:28.929Z,260
2022-09-10T10:28:29.160Z,255
2022-09-10T10:29:29.129Z,200
2022-09-10T10:30:29.118Z,185
2022-09-10T10:31:29.312Z,195
2022-09-10T10:32:29.115Z,215
2022-09-10T10:33:28.842Z,230
2022-09-10T10:34:28.570Z,215
2022-09-10T10:35:28.314Z,240
2022-09-10T10:36:29.084Z,205
2022-09-10T10:37:29.084Z,160
2022-09-10T10:38:28.864Z,160
2022-09-10T10:39:29.072Z,160
2022-09-10T10:40:28.802Z,160
2022-09-10T10:41:29.058Z,170
2022-09-10T10:42:29.367Z,175
2022-09-10T10:43:28.847Z,175
2022-09-10T10:44:29.438Z,180
2022-09-10T10:45:28.539Z,155
2022-09-10T10:46:29.254Z,155
2022-09-10T10:47:28.512Z,160
2022-09-10T10:48:29.025Z,175
2022-09-10T10:49:29.033Z,190
2022-09-10T10:50:28.760Z,190
2022-09-10T10:51:28.745Z,215
2022-09-10T10:52:28.767Z,215
2022-09-10T10:53:28.474Z,205
2022-09-10T10:54:28.758Z,195
2022-09-10T10:55:28.728Z,185
2022-09-10T10:56:28.989Z,170
2022-09-10T10:57:29.227Z,165
2022-09-10T10:58:29.012Z,150
2022-09-10T10:59:28.773Z,170
2022-09-10T11:00:28.471Z,175
2022-09-10T11:01:29.198Z,175
2022-09-10T11:02:29.071Z,190
2022-09-10T11:03:28.700Z,215
2022-09-10T11:04:29.288Z,260
2022-09-10T11:05:28.938Z,295
2022-09-10T11:06:28.927Z,320
2022-09-10T11:07:28.670Z,320
2022-09-10T11:08:28.915Z,320
2022-09-10T11:09:28.407Z,335
2022-09-10T11:10:28.655Z,335
2022-09-10T11:11:29.158Z,350
2022-09-10T11:12:28.902Z,350
2022-09-10T11:13:28.899Z,370
2022-09-10T11:14:28.683Z,360
2022-09-10T11:15:28.934Z,345
2022-09-10T11:16:28.646Z,325
2022-09-10T11:17:28.874Z,290
2022-09-10T11:18:29.135Z,275
2022-09-10T11:19:28.343Z,275
2022-09-10T11:20:44.113Z,280
2022-09-10T11:21:28.646Z,280
2022-09-10T11:22:28.344Z,270
2022-09-10T11:23:28.587Z,255
2022-09-10T11:24:28.582Z,255
2022-09-10T11:25:29.102Z,285
2022-09-10T11:26:28.324Z,295
2022-09-10T11:27:28.570Z,290
2022-09-10T11:28:28.863Z,310
2022-09-10T11:29:28.310Z,305
2022-09-10T11:30:29.132Z,285
2022-09-10T11:31:28.785Z,275
2022-09-10T11:32:28.852Z,265
2022-09-10T11:33:29.070Z,265
2022-09-10T11:34:28.800Z,275
2022-09-10T11:35:28.545Z,275
2022-09-10T11:36:28.546Z,245
2022-09-10T11:37:28.800Z,220
2022-09-10T11:38:28.531Z,250
2022-09-10T11:39:28.547Z,260
2022-09-10T11:40:28.519Z,255
2022-09-10T11:41:28.014Z,240
2022-09-10T11:42:28.881Z,195
2022-09-10T11:43:28.772Z,185
2022-09-10T11:44:30.731Z,145
2022-09-10T11:45:28.504Z,175
2022-09-10T11:46:28.842Z,170
2022-09-10T11:47:29.062Z,160
2022-09-10T11:48:29.029Z,165
2022-09-10T11:49:28.998Z,175
2022-09-10T11:50:32.346Z,185
2022-09-10T11:51:28.478Z,165
2022-09-10T11:52:28.741Z,135
2022-09-10T11:53:28.737Z,130
2022-09-10T11:54:28.218Z,130
2022-09-10T11:55:28.487Z,135
2022-09-10T11:56:28.983Z,125
2022-09-10T11:57:28.461Z,130
2022-09-10T11:58:28.714Z,120
2022-09-10T11:59:28.191Z,130
2022-09-10T12:00:28.701Z,135
2022-09-10T12:01:28.704Z,155
2022-09-10T12:02:29.094Z,135
2022-09-10T12:03:28.998Z,150
2022-09-10T12:04:28.988Z,175
2022-09-10T12:05:28.679Z,155
2022-09-10T12:06:28.421Z,145
2022-09-10T12:07:28.431Z,140
2022-09-10T12:08:28.150Z,135
2022-09-10T12:09:28.926Z,135
2022-09-10T12:10:28.400Z,160
2022-09-10T12:11:28.397Z,185
2022-09-10T12:12:28.194Z,175
2022-09-10T12:13:28.639Z,155
2022-09-10T12:14:28.918Z,165
2022-09-10T12:15:28.635Z,165
2022-09-10T12:16:29.043Z,155
2022-09-10T12:17:28.370Z,150
2022-09-10T12:18:28.416Z,175
2022-09-10T12:19:28.672Z,220
2022-09-10T12:20:28.386Z,260
2022-09-10T12:21:28.090Z,280
2022-09-10T12:22:28.603Z,295
2022-09-10T12:23:28.858Z,305
2022-09-10T12:24:28.351Z,295
2022-09-10T12:25:34.466Z,270
2022-09-10T12:26:28.333Z,245
2022-09-10T12:27:28.404Z,230
2022-09-10T12:28:28.324Z,220
2022-09-10T12:29:28.309Z,220
2022-09-10T12:30:28.324Z,220
2022-09-10T12:31:28.957Z,205
2022-09-10T12:32:28.820Z,195
2022-09-10T12:33:28.584Z,195
2022-09-10T12:34:28.372Z,190
2022-09-10T12:35:28.592Z,210
2022-09-10T12:36:28.565Z,230
2022-09-10T12:37:28.536Z,245
2022-09-10T12:38:28.786Z,255
2022-09-10T12:39:28.012Z,260
2022-09-10T12:40:28.975Z,275
2022-09-10T12:41:27.993Z,285
2022-09-10T12:42:28.765Z,305
2022-09-10T12:43:28.248Z,305
2022-09-10T12:44:28.507Z,310
2022-09-10T12:45:28.502Z,340
2022-09-10T12:46:28.615Z,360
2022-09-10T12:47:28.221Z,365
2022-09-10T12:48:34.026Z,370
2022-09-10T12:49:28.479Z,370
2022-09-10T12:50:28.516Z,375
2022-09-10T12:51:28.258Z,370
2022-09-10T12:52:28.052Z,390
2022-09-10T12:53:28.193Z,395
2022-09-10T12:54:28.708Z,390
2022-09-10T12:55:28.203Z,385
2022-09-10T12:56:28.703Z,375
2022-09-10T12:57:28.445Z,360
2022-09-10T12:58:29.852Z,360
2022-09-10T12:59:28.430Z,355
2022-09-10T13:00:28.176Z,340
2022-09-10T13:01:29.396Z,325
2022-09-10T13:02:28.819Z,320
2022-09-10T13:03:28.416Z,305
2022-09-10T13:04:27.901Z,290
2022-09-10T13:05:28.150Z,275
2022-09-10T13:06:28.194Z,285
2022-09-10T13:07:28.206Z,290
2022-09-10T13:08:28.168Z,280
2022-09-10T13:09:27.883Z,280
2022-09-10T13:10:30.902Z,250
2022-09-10T13:11:28.121Z,210
2022-09-10T13:12:28.381Z,225
2022-09-10T13:13:27.858Z,200
2022-09-10T13:14:28.105Z,185
2022-09-10T13:15:28.019Z,215
2022-09-10T13:16:28.361Z,245
2022-09-10T13:17:27.842Z,250
2022-09-10T13:18:28.349Z,235
2022-09-10T13:19:28.351Z,255
2022-09-10T13:20:27.571Z,295
2022-09-10T13:21:28.082Z,310
2022-09-10T13:22:28.386Z,315
2022-09-10T13:23:28.375Z,320
2022-09-10T13:24:32.263Z,315
2022-09-10T13:25:27.809Z,300
2022-09-10T13:26:28.318Z,265
2022-09-10T13:27:27.792Z,295
2022-09-10T13:28:28.048Z,295
2022-09-10T13:29:28.046Z,280
2022-09-10T13:30:28.039Z,275
2022-09-10T13:31:28.195Z,240
2022-09-10T13:32:28.035Z,200
2022-09-10T13:33:36.623Z,195
2022-09-10T13:34:28.283Z,200
2022-09-10T13:35:27.759Z,225
2022-09-10T13:36:28.006Z,225
2022-09-10T13:37:27.753Z,210
2022-09-10T13:38:28.306Z,165
2022-09-10T13:39:28.575Z,150
2022-09-10T13:40:28.291Z,225
2022-09-10T13:41:28.508Z,280
2022-09-10T13:42:27.728Z,270
2022-09-10T13:43:27.730Z,205
2022-09-10T13:44:27.710Z,190
2022-09-10T13:45:27.993Z,200
2022-09-10T13:46:28.907Z,225
2022-09-10T13:47:27.983Z,240
2022-09-10T13:48:27.708Z,215
2022-09-10T13:49:28.466Z,215
2022-09-10T13:50:27.731Z,225
2022-09-10T13:51:27.952Z,235
2022-09-10T13:52:27.971Z,255
2022-09-10T13:53:27.675Z,235
2022-09-10T13:54:27.983Z,220
2022-09-10T13:55:28.227Z,205
2022-09-10T13:56:27.943Z,235
2022-09-10T13:57:27.921Z,310
2022-09-10T13:58:28.164Z,285
2022-09-10T13:59:27.913Z,250
2022-09-10T14:00:28.145Z,200
2022-09-10T14:01:28.214Z,175
2022-09-10T14:02:28.258Z,155
2022-09-10T14:03:27.885Z,135
2022-09-10T14:04:27.884Z,125
2022-09-10T14:05:27.875Z,110
2022-09-10T14:06:27.868Z,140
2022-09-10T14:07:28.121Z,115
2022-09-10T14:08:28.111Z,120
2022-09-10T14:09:28.367Z,145
2022-09-10T14:10:28.162Z,130
2022-09-10T14:11:27.898Z,120
2022-09-10T14:12:28.128Z,110
2022-09-10T14:13:27.840Z,125
2022-09-10T14:14:28.084Z,160
2022-09-10T14:15:27.855Z,115
2022-09-10T14:16:32.563Z,115
2022-09-10T14:17:28.116Z,115
2022-09-10T14:18:27.810Z,105
2022-09-10T14:19:28.320Z,115
2022-09-10T14:20:27.804Z,125
2022-09-10T14:21:27.797Z,140
2022-09-10T14:22:28.054Z,160
2022-09-10T14:23:27.528Z,155
2022-09-10T14:24:28.072Z,185
2022-09-10T14:25:27.510Z,190